Time;durP1;ratioP1;P1;durP2;ratioP2;P2;SDS_P1;SDS_P2;PMS_P1;PMS_P2;Temp;Humidity;BMP_temperature;BMP_pressure;BME280_temperature;BME280_humidity;BME280_pressure;Samples;Min_cycle;Max_cycle;Signal;HPM_P1;HPM_P2
2022/07/02 00:00:04;;;;;;;15.43;10.10;;;;;;;;;;5034186;28;20045;-72
2022/07/02 00:02:40;;;;;;;15.45;10.10;;;;;;;;;;5052144;28;20053;-71
2022/07/02 00:05:08;;;;;;;14.43;10.43;;;;;;;;;;5052106;28;20437;-72
2022/07/02 00:07:35;;;;;;;16.77;9.80;;;;;;;;;;5052422;28;20037;-72
2022/07/02 00:10:03;;;;;;;15.35;10.48;;;;;;;;;;5056136;28;20045;-72
2022/07/02 00:12:31;;;;;;;16.15;10.15;;;;;;;;;;5056054;28;20049;-72
2022/07/02 00:14:59;;;;;;;12.30;10.25;;;;;;;;;;5037980;28;20467;-72
2022/07/02 00:17:27;;;;;;;17.58;10.65;;;;;;;;;;5055787;28;20048;-72
2022/07/02 00:19:54;;;;;;;16.38;10.57;;;;;;;;;;5055897;28;20437;-71
2022/07/02 00:22:22;;;;;;;17.50;11.05;;;;;;;;;;5055822;28;20041;-71
2022/07/02 00:24:49;;;;;;;13.93;10.75;;;;;;;;;;5055770;28;20119;-72
2022/07/02 00:27:18;;;;;;;16.63;11.27;;;;;;;;;;5055674;28;20075;-72
2022/07/02 00:29:45;;;;;;;12.20;10.95;;;;;;;;;;5055767;28;20445;-72
2022/07/02 00:32:13;;;;;;;14.82;10.85;;;;;;;;;;5037736;28;20052;-72
2022/07/02 00:34:42;;;;;;;16.05;10.43;;;;;;;;;;5055604;28;20037;-72
2022/07/02 00:37:11;;;;;;;18.58;11.05;;;;;;;;;;5055557;28;20394;-72
2022/07/02 00:39:38;;;;;;;16.13;10.77;;;;;;;;;;5055246;28;20071;-72
2022/07/02 00:42:07;;;;;;;15.18;10.20;;;;;;;;;;5055479;28;20045;-72
2022/07/02 00:44:34;;;;;;;19.33;11.30;;;;;;;;;;5037616;28;20536;-72
2022/07/02 00:47:07;;;;;;;17.20;10.45;;;;;;;;;;5055364;28;20049;-72
2022/07/02 00:49:35;;;;;;;16.08;10.95;;;;;;;;;;5055390;28;20509;-72
2022/07/02 00:52:03;;;;;;;12.38;10.45;;;;;;;;;;5037637;28;20045;-72
2022/07/02 00:54:31;;;;;;;18.85;10.63;;;;;;;;;;5055284;28;20067;-72
2022/07/02 00:56:58;;;;;;;14.23;10.40;;;;;;;;;;5055120;28;20044;-72
2022/07/02 00:59:26;;;;;;;18.20;11.25;;;;;;;;;;5055274;28;20049;-72
2022/07/02 01:01:54;;;;;;;17.98;10.77;;;;;;;;;;5055183;28;20049;-72
2022/07/02 01:04:23;;;;;;;18.27;11.43;;;;;;;;;;5054991;28;20041;-72
2022/07/02 01:06:51;;;;;;;17.25;11.30;;;;;;;;;;5054882;28;20048;-72
2022/07/02 01:12:06;;;;;;;17.80;11.70;;;;;;;;;;5054949;28;20553;-72
2022/07/02 01:14:33;;;;;;;16.45;11.93;;;;;;;;;;5054888;28;20099;-72
2022/07/02 01:17:01;;;;;;;18.70;11.50;;;;;;;;;;5054844;28;20045;-72
2022/07/02 01:19:28;;;;;;;15.57;12.50;;;;;;;;;;5054119;28;20041;-71
2022/07/02 01:22:11;;;;;;;18.13;11.77;;;;;;;;;;5054794;28;20124;-72
2022/07/02 01:24:39;;;;;;;17.30;11.98;;;;;;;;;;5054767;28;20083;-71
2022/07/02 01:27:07;;;;;;;17.30;11.63;;;;;;;;;;5054442;28;20045;-71
2022/07/02 01:29:34;;;;;;;21.90;12.13;;;;;;;;;;5054641;28;20068;-71
2022/07/02 01:32:03;;;;;;;18.90;12.40;;;;;;;;;;5054571;28;20045;-71
2022/07/02 01:34:36;;;;;;;20.67;12.25;;;;;;;;;;5054747;28;20063;-72
2022/07/02 01:37:05;;;;;;;16.00;12.23;;;;;;;;;;5054281;28;20143;-72
2022/07/02 01:39:32;;;;;;;15.88;11.55;;;;;;;;;;5054174;28;20040;-71
2022/07/02 01:42:00;;;;;;;13.10;11.13;;;;;;;;;;5054215;28;20041;-72
2022/07/02 01:44:27;;;;;;;19.42;12.02;;;;;;;;;;5054458;28;20052;-72
2022/07/02 01:46:55;;;;;;;19.38;12.45;;;;;;;;;;5036344;28;20710;-72
2022/07/02 01:49:22;;;;;;;13.70;11.55;;;;;;;;;;5054106;28;20048;-72
2022/07/02 01:51:50;;;;;;;16.80;11.40;;;;;;;;;;5054111;28;20071;-72
2022/07/02 01:54:17;;;;;;;17.83;11.82;;;;;;;;;;5036477;28;20041;-72
2022/07/02 01:56:45;;;;;;;18.02;12.30;;;;;;;;;;5053911;28;20739;-72
2022/07/02 01:59:13;;;;;;;21.20;12.27;;;;;;;;;;5054060;28;20041;-72
2022/07/02 02:01:41;;;;;;;16.20;11.38;;;;;;;;;;5053833;28;20119;-71
2022/07/02 02:04:09;;;;;;;17.55;11.57;;;;;;;;;;5054002;28;20037;-72
2022/07/02 02:06:37;;;;;;;16.40;10.45;;;;;;;;;;5053622;28;20041;-71
2022/07/02 02:09:05;;;;;;;16.45;10.95;;;;;;;;;;5053905;28;20033;-71
2022/07/02 02:11:33;;;;;;;16.83;10.95;;;;;;;;;;5053585;28;20037;-71
2022/07/02 02:14:01;;;;;;;12.15;10.75;;;;;;;;;;5053783;28;20045;-71
2022/07/02 02:16:29;;;;;;;19.15;11.60;;;;;;;;;;5053540;28;20099;-71
2022/07/02 02:18:57;;;;;;;18.75;11.25;;;;;;;;;;5053696;28;20037;-71
2022/07/02 02:21:26;;;;;;;17.95;10.75;;;;;;;;;;5053581;28;20051;-71
2022/07/02 02:23:54;;;;;;;16.52;11.30;;;;;;;;;;5053238;28;20045;-71
2022/07/02 02:26:21;;;;;;;17.38;11.20;;;;;;;;;;5053470;28;20064;-77
2022/07/02 02:28:49;;;;;;;18.77;11.18;;;;;;;;;;5053422;28;20037;-71
2022/07/02 02:31:16;;;;;;;15.32;10.75;;;;;;;;;;5051886;28;20037;-70
2022/07/02 02:33:44;;;;;;;16.58;11.30;;;;;;;;;;5052902;28;20033;-71
2022/07/02 02:36:12;;;;;;;19.98;10.90;;;;;;;;;;5053222;28;20517;-70
2022/07/02 02:38:39;;;;;;;21.27;11.60;;;;;;;;;;5053202;28;20546;-70
2022/07/02 02:41:07;;;;;;;14.07;10.80;;;;;;;;;;5052849;28;20384;-70
2022/07/02 02:43:35;;;;;;;17.15;11.15;;;;;;;;;;5053134;28;20490;-71
2022/07/02 02:46:03;;;;;;;13.00;10.48;;;;;;;;;;5053029;28;20494;-71
2022/07/02 02:48:31;;;;;;;15.07;11.13;;;;;;;;;;5053061;28;20041;-69
2022/07/02 02:50:59;;;;;;;14.93;10.77;;;;;;;;;;5053168;28;20037;-70
2022/07/02 02:53:26;;;;;;;14.30;10.93;;;;;;;;;;5052968;28;20394;-70
2022/07/02 02:55:54;;;;;;;14.25;10.55;;;;;;;;;;5052988;28;20448;-69
2022/07/02 02:58:21;;;;;;;16.40;10.45;;;;;;;;;;5035329;28;20048;-70
2022/07/02 03:00:49;;;;;;;18.48;11.35;;;;;;;;;;5052844;28;20037;-70
2022/07/02 03:03:16;;;;;;;17.25;10.93;;;;;;;;;;5052930;28;20099;-69
2022/07/02 03:05:44;;;;;;;17.70;11.43;;;;;;;;;;5052747;28;20072;-69
2022/07/02 03:08:11;;;;;;;12.43;10.70;;;;;;;;;;5052885;28;20464;-69
2022/07/02 03:10:40;;;;;;;14.07;10.48;;;;;;;;;;5052609;28;20033;-69
2022/07/02 03:13:07;;;;;;;13.20;10.38;;;;;;;;;;5052777;28;20503;-69
2022/07/02 03:15:35;;;;;;;15.20;10.82;;;;;;;;;;5052618;28;20045;-70
2022/07/02 03:18:02;;;;;;;16.77;13.02;;;;;;;;;;5052559;28;20558;-70
2022/07/02 03:20:31;;;;;;;16.38;11.10;;;;;;;;;;5052590;28;20056;-70
2022/07/02 03:22:58;;;;;;;14.60;11.23;;;;;;;;;;5052656;28;20044;-70
2022/07/02 03:25:26;;;;;;;15.70;11.40;;;;;;;;;;5052614;28;20487;-70
2022/07/02 03:27:56;;;;;;;20.17;11.10;;;;;;;;;;5052524;28;20068;-70
2022/07/02 03:30:24;;;;;;;15.05;11.57;;;;;;;;;;5052505;28;20041;-70
2022/07/02 03:32:51;;;;;;;12.93;11.00;;;;;;;;;;5030303;28;20499;-68
2022/07/02 03:35:19;;;;;;;13.48;10.82;;;;;;;;;;5054950;28;20049;-68
2022/07/02 03:37:46;;;;;;;16.83;11.20;;;;;;;;;;5049962;28;20041;-69
2022/07/02 03:40:14;;;;;;;16.17;10.35;;;;;;;;;;5051772;28;20088;-68
2022/07/02 03:42:41;;;;;;;15.30;11.20;;;;;;;;;;5035759;28;20040;-68
2022/07/02 03:45:09;;;;;;;17.35;11.20;;;;;;;;;;5058867;28;20052;-68
2022/07/02 03:47:37;;;;;;;15.93;10.30;;;;;;;;;;5058702;28;20033;-69
2022/07/02 03:50:04;;;;;;;16.73;11.20;;;;;;;;;;5058208;28;20351;-69
2022/07/02 03:52:32;;;;;;;13.57;10.98;;;;;;;;;;5058006;28;20049;-69
2022/07/02 03:54:59;;;;;;;16.17;11.93;;;;;;;;;;5058297;28;20043;-68
2022/07/02 03:57:27;;;;;;;13.70;11.30;;;;;;;;;;5058467;28;20044;-68
2022/07/02 03:59:54;;;;;;;11.77;10.38;;;;;;;;;;5058525;28;20042;-68
2022/07/02 04:02:22;;;;;;;13.30;10.65;;;;;;;;;;5058551;28;20041;-69
2022/07/02 04:04:51;;;;;;;12.75;10.38;;;;;;;;;;5065969;28;20041;-69
2022/07/02 04:07:19;;;;;;;12.65;10.00;;;;;;;;;;5043032;28;20484;-68
2022/07/02 04:09:46;;;;;;;13.30;10.15;;;;;;;;;;5048751;28;20144;-69
2022/07/02 04:12:14;;;;;;;13.27;9.75;;;;;;;;;;5043405;28;20048;-68
2022/07/02 04:14:41;;;;;;;11.48;9.60;;;;;;;;;;5065464;28;20048;-68
2022/07/02 04:17:09;;;;;;;15.27;10.18;;;;;;;;;;5058104;28;20116;-68
2022/07/02 04:19:37;;;;;;;14.93;10.10;;;;;;;;;;5040477;28;20135;-68
2022/07/02 04:22:04;;;;;;;15.68;9.95;;;;;;;;;;5058301;28;20094;-68
2022/07/02 04:24:32;;;;;;;11.30;9.60;;;;;;;;;;5058354;28;20434;-68
2022/07/02 04:26:59;;;;;;;15.48;9.93;;;;;;;;;;5058207;28;20043;-69
2022/07/02 04:29:27;;;;;;;11.65;9.27;;;;;;;;;;5058563;28;20047;-69
2022/07/02 04:31:54;;;;;;;13.27;9.32;;;;;;;;;;5058138;28;20076;-69
2022/07/02 04:34:22;;;;;;;17.13;9.05;;;;;;;;;;5058396;28;20087;-69
2022/07/02 04:36:49;;;;;;;11.32;8.77;;;;;;;;;;5058305;28;20442;-69
2022/07/02 04:39:21;;;;;;;14.55;9.10;;;;;;;;;;5041211;28;20037;-69
2022/07/02 04:41:49;;;;;;;11.60;9.35;;;;;;;;;;5057993;28;20045;-69
2022/07/02 04:44:16;;;;;;;15.48;10.02;;;;;;;;;;5058226;28;20475;-68
2022/07/02 04:46:44;;;;;;;14.70;10.00;;;;;;;;;;5057924;28;20048;-69
2022/07/02 04:49:11;;;;;;;14.38;10.88;;;;;;;;;;5058167;28;20136;-69
2022/07/02 04:51:39;;;;;;;18.83;12.80;;;;;;;;;;5058142;28;20048;-68
2022/07/02 04:54:06;;;;;;;15.45;12.40;;;;;;;;;;5057131;28;20047;-68
2022/07/02 04:56:34;;;;;;;11.68;9.98;;;;;;;;;;5056884;28;20477;-68
2022/07/02 04:59:02;;;;;;;12.93;9.32;;;;;;;;;;5034719;28;20048;-68
2022/07/02 05:01:29;;;;;;;19.83;12.40;;;;;;;;;;5034050;28;20048;-68
2022/07/02 05:03:57;;;;;;;11.10;9.40;;;;;;;;;;5033774;28;20103;-68
2022/07/02 05:06:24;;;;;;;14.10;10.80;;;;;;;;;;5035062;28;20041;-68
2022/07/02 05:08:52;;;;;;;13.70;9.52;;;;;;;;;;5035070;28;20465;-68
2022/07/02 05:11:19;;;;;;;12.63;10.07;;;;;;;;;;5035085;28;20038;-68
2022/07/02 05:13:47;;;;;;;14.57;9.20;;;;;;;;;;5035120;28;20053;-67
2022/07/02 05:16:16;;;;;;;12.32;9.10;;;;;;;;;;5033558;28;20045;-68
2022/07/02 05:18:43;;;;;;;15.18;8.90;;;;;;;;;;5015536;28;20080;-68
2022/07/02 05:21:11;;;;;;;12.90;8.88;;;;;;;;;;5033707;28;20037;-68
2022/07/02 05:23:39;;;;;;;13.43;7.82;;;;;;;;;;5034132;28;20041;-68
2022/07/02 05:26:06;;;;;;;12.02;9.25;;;;;;;;;;5016459;28;20041;-67
2022/07/02 05:28:34;;;;;;;12.88;8.50;;;;;;;;;;5016713;28;20202;-68
2022/07/02 05:31:01;;;;;;;15.70;8.55;;;;;;;;;;5037359;28;20054;-70
2022/07/02 05:33:29;;;;;;;11.43;8.10;;;;;;;;;;5034657;28;20042;-67
2022/07/02 05:35:57;;;;;;;9.48;8.20;;;;;;;;;;5034795;28;20042;-74
2022/07/02 05:38:24;;;;;;;12.25;7.80;;;;;;;;;;5034899;28;20065;-74
2022/07/02 05:40:52;;;;;;;9.85;8.23;;;;;;;;;;5034435;28;20051;-73
2022/07/02 05:43:19;;;;;;;8.93;7.82;;;;;;;;;;5033296;28;20046;-74
2022/07/02 05:45:48;;;;;;;11.90;7.28;;;;;;;;;;5034557;28;20445;-69
2022/07/02 05:48:16;;;;;;;12.88;9.63;;;;;;;;;;5035932;28;20467;-69
2022/07/02 05:50:44;;;;;;;10.82;8.90;;;;;;;;;;5054378;28;20064;-69
2022/07/02 05:53:12;;;;;;;14.20;8.75;;;;;;;;;;5053982;28;20048;-69
2022/07/02 05:55:39;;;;;;;8.20;7.03;;;;;;;;;;5054080;28;20048;-70
2022/07/02 05:58:07;;;;;;;11.75;7.30;;;;;;;;;;5053970;28;20513;-70
2022/07/02 06:00:34;;;;;;;10.35;7.88;;;;;;;;;;5054073;28;20048;-71
2022/07/02 06:03:02;;;;;;;11.18;7.43;;;;;;;;;;5054034;28;20041;-70
2022/07/02 06:08:16;;;;;;;14.20;9.40;;;;;;;;;;5052285;28;20395;-71
2022/07/02 06:10:44;;;;;;;10.23;7.30;;;;;;;;;;5054071;28;20033;-71
2022/07/02 06:13:11;;;;;;;13.43;7.97;;;;;;;;;;5053254;28;20128;-71
2022/07/02 06:15:39;;;;;;;7.88;6.82;;;;;;;;;;5052740;28;20053;-70
2022/07/02 06:18:06;;;;;;;8.38;6.97;;;;;;;;;;5052764;28;20037;-68
2022/07/02 06:20:35;;;;;;;11.63;7.40;;;;;;;;;;5051934;28;20387;-68
2022/07/02 06:23:02;;;;;;;8.93;7.47;;;;;;;;;;5053099;28;20118;-71
2022/07/02 06:25:30;;;;;;;12.55;6.57;;;;;;;;;;5058166;28;20032;-70
2022/07/02 06:27:57;;;;;;;8.75;6.43;;;;;;;;;;5054621;28;20036;-68
2022/07/02 06:30:25;;;;;;;7.60;6.85;;;;;;;;;;5053129;28;20467;-67
2022/07/02 06:32:52;;;;;;;17.48;15.38;;;;;;;;;;5052218;28;20457;-71
2022/07/02 06:35:20;;;;;;;16.05;12.32;;;;;;;;;;5051210;28;20041;-70
2022/07/02 06:37:47;;;;;;;13.95;7.15;;;;;;;;;;5052683;28;20036;-70
2022/07/02 06:40:15;;;;;;;8.95;5.85;;;;;;;;;;5052037;28;20052;-69
2022/07/02 06:42:42;;;;;;;8.65;5.28;;;;;;;;;;5033967;28;20140;-69
2022/07/02 06:45:10;;;;;;;7.90;5.35;;;;;;;;;;5052195;28;20045;-71
2022/07/02 06:47:41;;;;;;;9.65;6.13;;;;;;;;;;5052138;28;20112;-69
2022/07/02 06:50:09;;;;;;;9.88;5.70;;;;;;;;;;5052147;28;20087;-69
2022/07/02 06:52:37;;;;;;;6.20;5.07;;;;;;;;;;5051973;28;20037;-68
2022/07/02 06:55:05;;;;;;;9.00;5.32;;;;;;;;;;5052034;28;20048;-68
2022/07/02 06:57:33;;;;;;;8.70;5.10;;;;;;;;;;5053204;28;20119;-68
2022/07/02 07:00:00;;;;;;;11.07;5.50;;;;;;;;;;5051944;28;20511;-68
2022/07/02 07:02:27;;;;;;;8.30;4.95;;;;;;;;;;5051532;28;20043;-69
2022/07/02 07:04:55;;;;;;;9.65;5.63;;;;;;;;;;5051886;28;20040;-71
2022/07/02 07:07:29;;;;;;;9.07;5.20;;;;;;;;;;5052352;28;20049;-70
2022/07/02 07:09:57;;;;;;;7.90;4.65;;;;;;;;;;5052346;28;20076;-70
2022/07/02 07:12:24;;;;;;;11.52;5.30;;;;;;;;;;5052523;28;20037;-76
2022/07/02 07:14:52;;;;;;;8.32;5.45;;;;;;;;;;5051537;28;20132;-76
2022/07/02 07:17:19;;;;;;;6.35;4.40;;;;;;;;;;5062518;28;20044;-77
2022/07/02 07:19:47;;;;;;;7.60;4.93;;;;;;;;;;5055397;28;20106;-76
2022/07/02 07:22:14;;;;;;;10.77;5.05;;;;;;;;;;5052399;28;20048;-76
2022/07/02 07:24:42;;;;;;;5.85;4.03;;;;;;;;;;5052110;28;20116;-76
2022/07/02 07:27:10;;;;;;;10.10;6.55;;;;;;;;;;5052188;28;20515;-74
2022/07/02 07:29:38;;;;;;;8.30;4.70;;;;;;;;;;5052097;28;20068;-74
2022/07/02 07:32:05;;;;;;;8.52;4.30;;;;;;;;;;5052089;28;20044;-75
2022/07/02 07:34:39;;;;;;;5.82;4.50;;;;;;;;;;5052136;28;20098;-74
2022/07/02 07:37:07;;;;;;;9.27;3.80;;;;;;;;;;5051597;28;20104;-76
2022/07/02 07:39:35;;;;;;;4.70;3.55;;;;;;;;;;5051848;28;20040;-74
2022/07/02 07:42:02;;;;;;;4.95;4.00;;;;;;;;;;5052093;28;20068;-77
2022/07/02 07:44:31;;;;;;;6.32;3.88;;;;;;;;;;5051468;28;20049;-75
2022/07/02 07:46:59;;;;;;;6.03;4.30;;;;;;;;;;5051386;28;20037;-76
2022/07/02 07:49:26;;;;;;;5.63;3.70;;;;;;;;;;5051179;28;20491;-76
2022/07/02 07:51:54;;;;;;;6.97;3.80;;;;;;;;;;5052538;28;20638;-75
2022/07/02 07:54:21;;;;;;;7.07;3.70;;;;;;;;;;5046986;28;20049;-76
2022/07/02 07:56:49;;;;;;;4.57;4.00;;;;;;;;;;5049929;28;20348;-76
2022/07/02 07:59:16;;;;;;;7.47;4.07;;;;;;;;;;5051800;28;20141;-77
2022/07/02 08:01:44;;;;;;;5.57;3.90;;;;;;;;;;5066276;28;20033;-76
2022/07/02 08:04:11;;;;;;;6.80;4.03;;;;;;;;;;5051614;28;20502;-76
2022/07/02 08:06:39;;;;;;;13.48;4.10;;;;;;;;;;5051730;28;20044;-75
2022/07/02 08:09:07;;;;;;;5.65;4.00;;;;;;;;;;5051537;28;20120;-73
2022/07/02 08:11:34;;;;;;;4.57;3.60;;;;;;;;;;5051205;28;20048;-77
2022/07/02 08:14:02;;;;;;;7.10;4.15;;;;;;;;;;5050958;28;20095;-76
2022/07/02 08:16:29;;;;;;;6.70;3.53;;;;;;;;;;5052579;28;20040;-77
2022/07/02 08:18:57;;;;;;;8.23;4.07;;;;;;;;;;5050438;28;20040;-76
2022/07/02 08:21:25;;;;;;;8.15;3.67;;;;;;;;;;5051167;28;20041;-76
2022/07/02 08:23:52;;;;;;;7.13;3.78;;;;;;;;;;5051173;28;20045;-74
2022/07/02 08:26:20;;;;;;;5.32;3.72;;;;;;;;;;5051153;28;20041;-75
2022/07/02 08:28:47;;;;;;;5.72;3.50;;;;;;;;;;5051597;28;20103;-76
2022/07/02 08:31:15;;;;;;;5.78;3.50;;;;;;;;;;5054701;28;20508;-75
2022/07/02 08:33:42;;;;;;;6.65;3.72;;;;;;;;;;5055303;28;20037;-75
2022/07/02 08:36:10;;;;;;;12.82;4.05;;;;;;;;;;5055349;28;20045;-76
2022/07/02 08:38:38;;;;;;;4.57;3.70;;;;;;;;;;5055359;28;20033;-76
2022/07/02 08:41:07;;;;;;;7.30;3.63;;;;;;;;;;5055075;28;20120;-73
2022/07/02 08:43:36;;;;;;;4.10;3.70;;;;;;;;;;5055215;28;20052;-73
2022/07/02 08:46:05;;;;;;;8.32;4.18;;;;;;;;;;5055114;28;20049;-73
2022/07/02 08:48:34;;;;;;;5.82;4.10;;;;;;;;;;5055072;28;20095;-73
2022/07/02 08:51:01;;;;;;;5.63;4.72;;;;;;;;;;5036995;28;20045;-69
2022/07/02 08:53:29;;;;;;;4.50;3.92;;;;;;;;;;5054535;28;20120;-73
2022/07/02 08:55:57;;;;;;;7.18;4.70;;;;;;;;;;5036846;28;20048;-74
2022/07/02 08:58:26;;;;;;;4.35;4.03;;;;;;;;;;5054819;28;20067;-73
2022/07/02 09:00:54;;;;;;;8.27;4.18;;;;;;;;;;5054095;28;20053;-73
2022/07/02 09:03:21;;;;;;;4.80;4.28;;;;;;;;;;5054444;28;20061;-74
2022/07/02 09:05:50;;;;;;;7.43;4.25;;;;;;;;;;5054680;28;20087;-75
2022/07/02 09:08:18;;;;;;;4.90;3.90;;;;;;;;;;5053063;28;20538;-74
2022/07/02 09:10:46;;;;;;;6.78;4.80;;;;;;;;;;5036371;28;20033;-75
2022/07/02 09:13:14;;;;;;;6.28;4.07;;;;;;;;;;5054107;28;20049;-75
2022/07/02 09:15:41;;;;;;;8.00;4.70;;;;;;;;;;5054174;28;20045;-75
2022/07/02 09:18:09;;;;;;;8.27;4.43;;;;;;;;;;5053622;28;20506;-74
2022/07/02 09:20:37;;;;;;;4.68;4.20;;;;;;;;;;5053339;28;20041;-74
2022/07/02 09:23:09;;;;;;;5.10;4.60;;;;;;;;;;5036146;28;20049;-74
2022/07/02 09:25:37;;;;;;;6.30;4.13;;;;;;;;;;5035831;28;20129;-74
2022/07/02 09:28:05;;;;;;;6.22;4.30;;;;;;;;;;5053843;28;20041;-74
2022/07/02 09:30:38;;;;;;;6.22;4.18;;;;;;;;;;5035148;28;20526;-74
2022/07/02 09:33:33;;;;;;;6.68;3.95;;;;;;;;;;5054128;28;20094;-75
2022/07/02 09:36:02;;;;;;;7.47;4.10;;;;;;;;;;5028210;28;20037;-76
2022/07/02 09:38:29;;;;;;;6.78;4.47;;;;;;;;;;5053968;28;20037;-75
2022/07/02 09:40:59;;;;;;;7.25;4.63;;;;;;;;;;5053418;28;20513;-75
2022/07/02 09:43:27;;;;;;;6.88;4.30;;;;;;;;;;5053866;28;20076;-75
2022/07/02 09:45:55;;;;;;;6.57;4.57;;;;;;;;;;5054024;28;20060;-74
2022/07/02 09:48:22;;;;;;;8.77;5.03;;;;;;;;;;5053098;28;20040;-74
2022/07/02 09:50:50;;;;;;;6.90;4.05;;;;;;;;;;5052966;28;20033;-75
2022/07/02 09:53:18;;;;;;;9.63;5.13;;;;;;;;;;5055717;28;20090;-75
2022/07/02 09:55:50;;;;;;;6.78;5.25;;;;;;;;;;5053244;28;20072;-76
2022/07/02 09:58:28;;;;;;;5.45;4.20;;;;;;;;;;5052946;28;20045;-75
2022/07/02 10:01:00;;;;;;;5.53;4.18;;;;;;;;;;5053039;28;20080;-75
2022/07/02 10:03:28;;;;;;;8.52;5.50;;;;;;;;;;5053894;28;20037;-76
2022/07/02 10:05:56;;;;;;;6.70;5.25;;;;;;;;;;5035988;28;20033;-75
2022/07/02 10:08:24;;;;;;;8.73;4.65;;;;;;;;;;5052723;28;20395;-75
2022/07/02 10:10:51;;;;;;;11.25;4.68;;;;;;;;;;5015475;28;20033;-75
2022/07/02 10:13:19;;;;;;;7.68;4.95;;;;;;;;;;5038326;28;20538;-76
2022/07/02 10:15:57;;;;;;;6.15;4.47;;;;;;;;;;5035142;28;20068;-76
2022/07/02 10:18:25;;;;;;;6.20;4.80;;;;;;;;;;5048131;28;20067;-74
2022/07/02 10:21:03;;;;;;;12.43;5.00;;;;;;;;;;5070166;28;20047;-74
2022/07/02 10:23:30;;;;;;;8.98;5.18;;;;;;;;;;5057948;28;20040;-75
2022/07/02 10:25:58;;;;;;;6.80;4.90;;;;;;;;;;5053720;28;20045;-74
2022/07/02 10:28:26;;;;;;;6.85;4.60;;;;;;;;;;5058149;28;20087;-75
2022/07/02 10:30:55;;;;;;;7.43;5.20;;;;;;;;;;5051359;28;20061;-75
2022/07/02 10:33:22;;;;;;;5.95;4.97;;;;;;;;;;5052945;28;20041;-74
2022/07/02 10:35:50;;;;;;;8.20;5.22;;;;;;;;;;5049579;28;20053;-74
2022/07/02 10:38:31;;;;;;;6.07;5.30;;;;;;;;;;5051414;28;20115;-74
2022/07/02 10:40:59;;;;;;;8.30;4.85;;;;;;;;;;5052615;28;20051;-75
2022/07/02 10:43:28;;;;;;;8.23;4.75;;;;;;;;;;5047531;28;20548;-75
2022/07/02 10:46:02;;;;;;;7.20;4.70;;;;;;;;;;5045213;28;20037;-74
2022/07/02 10:48:30;;;;;;;6.82;4.75;;;;;;;;;;5049035;28;20483;-76
2022/07/02 10:50:58;;;;;;;6.85;5.85;;;;;;;;;;5052054;28;20041;-74
2022/07/02 10:53:27;;;;;;;5.57;4.90;;;;;;;;;;5052254;28;20080;-73
2022/07/02 10:55:59;;;;;;;9.40;7.53;;;;;;;;;;5052976;28;20041;-74
2022/07/02 10:58:28;;;;;;;7.45;5.10;;;;;;;;;;5052828;28;20045;-76
2022/07/02 11:00:56;;;;;;;6.25;5.47;;;;;;;;;;5052813;28;20060;-75
2022/07/02 11:03:25;;;;;;;6.82;4.78;;;;;;;;;;5048163;28;20037;-73
2022/07/02 11:05:58;;;;;;;10.73;7.20;;;;;;;;;;5049498;28;20037;-72
2022/07/02 11:08:43;;;;;;;10.82;5.47;;;;;;;;;;5032912;28;20034;-72
2022/07/02 11:11:12;;;;;;;6.70;5.80;;;;;;;;;;5035842;28;20409;-71
2022/07/02 11:13:47;;;;;;;7.38;5.28;;;;;;;;;;5031136;28;20042;-73
2022/07/02 11:16:47;;;;;;;8.15;5.20;;;;;;;;;;5042984;28;20269;-72
2022/07/02 11:19:19;;;;;;;9.50;5.72;;;;;;;;;;4998840;28;20072;-73
2022/07/02 11:21:50;;;;;;;8.32;5.20;;;;;;;;;;5052524;28;20098;-71
2022/07/02 11:24:26;;;;;;;7.88;5.13;;;;;;;;;;5052441;28;20048;-71
2022/07/02 11:26:53;;;;;;;8.70;6.00;;;;;;;;;;5052454;28;20045;-69
2022/07/02 11:29:21;;;;;;;7.75;5.20;;;;;;;;;;5052420;28;20119;-67
2022/07/02 11:31:49;;;;;;;8.63;5.63;;;;;;;;;;5052389;28;20044;-68
2022/07/02 11:34:20;;;;;;;7.50;4.70;;;;;;;;;;5052318;28;20045;-67
2022/07/02 11:36:47;;;;;;;9.98;5.38;;;;;;;;;;5052262;28;20067;-68
2022/07/02 11:39:16;;;;;;;10.35;5.25;;;;;;;;;;5039249;28;20037;-67
2022/07/02 11:41:44;;;;;;;5.82;5.18;;;;;;;;;;5047603;28;20052;-67
2022/07/02 11:44:32;;;;;;;6.50;5.05;;;;;;;;;;5051319;28;20044;-67
2022/07/02 11:47:00;;;;;;;14.63;11.07;;;;;;;;;;5054560;28;20037;-67
2022/07/02 11:49:30;;;;;;;11.43;6.22;;;;;;;;;;5050511;28;20037;-66
2022/07/02 11:51:58;;;;;;;8.77;5.80;;;;;;;;;;5041365;28;20120;-67
2022/07/02 11:54:26;;;;;;;8.05;6.00;;;;;;;;;;5025841;28;20068;-68
2022/07/02 11:56:54;;;;;;;5.88;5.10;;;;;;;;;;5038053;28;20087;-68
2022/07/02 11:59:23;;;;;;;11.80;6.35;;;;;;;;;;5050652;28;20049;-66
2022/07/02 12:01:52;;;;;;;8.18;5.03;;;;;;;;;;5064796;28;20166;-68
2022/07/02 12:04:21;;;;;;;8.68;6.75;;;;;;;;;;5072417;28;20052;-69
2022/07/02 12:06:50;;;;;;;6.10;4.95;;;;;;;;;;5039641;28;20048;-68
2022/07/02 12:09:19;;;;;;;7.95;4.70;;;;;;;;;;5040211;28;20042;-68
2022/07/02 12:11:47;;;;;;;6.82;4.78;;;;;;;;;;5035745;28;20099;-65
2022/07/02 12:14:15;;;;;;;8.13;5.13;;;;;;;;;;5034559;28;20045;-69
2022/07/02 12:16:46;;;;;;;9.80;5.85;;;;;;;;;;5045136;28;20037;-69
2022/07/02 12:19:15;;;;;;;7.65;5.47;;;;;;;;;;5055155;28;20391;-64
2022/07/02 12:21:45;;;;;;;6.22;5.22;;;;;;;;;;5024573;28;20625;-63
2022/07/02 12:24:22;;;;;;;7.10;5.60;;;;;;;;;;5054530;28;20563;-65
2022/07/02 12:26:51;;;;;;;7.40;5.30;;;;;;;;;;5055137;28;20122;-63
2022/07/02 12:32:09;;;;;;;8.73;6.57;;;;;;;;;;5038826;28;20041;-65
2022/07/02 12:34:44;;;;;;;6.78;4.90;;;;;;;;;;5020668;28;20044;-65
2022/07/02 12:37:22;;;;;;;8.57;5.30;;;;;;;;;;5048747;28;20049;-64
2022/07/02 12:39:49;;;;;;;7.15;4.80;;;;;;;;;;5053482;28;20152;-64
2022/07/02 12:42:18;;;;;;;6.22;4.95;;;;;;;;;;5068241;28;20037;-66
2022/07/02 12:44:59;;;;;;;9.00;4.90;;;;;;;;;;5054206;28;20037;-65
2022/07/02 12:47:27;;;;;;;6.53;5.25;;;;;;;;;;5068363;28;20041;-64
2022/07/02 12:50:14;;;;;;;11.48;9.80;;;;;;;;;;5054131;28;20041;-65
2022/07/02 12:52:48;;;;;;;8.70;7.10;;;;;;;;;;5058059;28;20107;-65
2022/07/02 12:55:22;;;;;;;6.63;5.93;;;;;;;;;;5062113;28;20049;-65
2022/07/02 12:57:50;;;;;;;7.85;5.32;;;;;;;;;;5053697;28;20045;-65
2022/07/02 13:00:17;;;;;;;8.90;5.53;;;;;;;;;;5064998;28;20056;-64
2022/07/02 13:02:45;;;;;;;6.35;4.70;;;;;;;;;;5057582;28;20037;-64
2022/07/02 13:05:12;;;;;;;7.07;4.85;;;;;;;;;;5074211;28;20044;-65
2022/07/02 13:07:40;;;;;;;9.10;5.05;;;;;;;;;;5058696;28;20114;-64
2022/07/02 13:10:07;;;;;;;7.75;4.72;;;;;;;;;;5049588;28;20044;-65
2022/07/02 13:12:35;;;;;;;12.32;5.30;;;;;;;;;;5066008;28;20033;-65
2022/07/02 13:15:03;;;;;;;8.15;4.90;;;;;;;;;;5055005;28;20041;-66
2022/07/02 13:17:30;;;;;;;6.38;5.18;;;;;;;;;;5053247;28;20092;-65
2022/07/02 13:20:07;;;;;;;8.30;4.93;;;;;;;;;;5052983;28;20652;-66
2022/07/02 13:22:35;;;;;;;8.48;4.65;;;;;;;;;;5051449;28;20132;-66
2022/07/02 13:25:03;;;;;;;6.88;4.45;;;;;;;;;;5053029;28;20064;-66
2022/07/02 13:27:30;;;;;;;5.95;4.47;;;;;;;;;;5054148;28;20087;-65
2022/07/02 13:29:58;;;;;;;6.10;4.60;;;;;;;;;;5054208;28;20075;-65
2022/07/02 13:32:25;;;;;;;8.05;5.35;;;;;;;;;;5072891;28;20045;-65
2022/07/02 13:34:53;;;;;;;7.72;4.90;;;;;;;;;;5057738;28;20064;-65
2022/07/02 13:37:20;;;;;;;7.93;5.00;;;;;;;;;;5034749;28;20049;-66
2022/07/02 13:39:48;;;;;;;8.05;5.15;;;;;;;;;;5053836;28;20037;-65
2022/07/02 13:42:16;;;;;;;6.80;4.90;;;;;;;;;;5052583;28;20115;-66
2022/07/02 13:44:43;;;;;;;7.35;5.40;;;;;;;;;;5052721;28;20037;-65
2022/07/02 13:47:11;;;;;;;8.57;4.78;;;;;;;;;;5067433;28;20367;-65
2022/07/02 13:49:38;;;;;;;8.05;5.53;;;;;;;;;;5053048;28;20647;-65
2022/07/02 13:52:06;;;;;;;6.70;4.55;;;;;;;;;;5053578;28;20535;-66
2022/07/02 13:54:33;;;;;;;20.83;5.15;;;;;;;;;;5061913;28;20040;-65
2022/07/02 13:57:01;;;;;;;8.27;4.80;;;;;;;;;;5051728;28;20083;-64
2022/07/02 13:59:28;;;;;;;5.65;4.90;;;;;;;;;;5052453;28;20448;-64
2022/07/02 14:01:56;;;;;;;5.95;4.40;;;;;;;;;;5024797;28;20125;-65
2022/07/02 14:04:23;;;;;;;5.35;4.85;;;;;;;;;;5061701;28;20486;-65
2022/07/02 14:06:51;;;;;;;6.47;4.72;;;;;;;;;;5053708;28;20083;-65
2022/07/02 14:09:18;;;;;;;7.93;4.80;;;;;;;;;;5052642;28;20395;-66
2022/07/02 14:11:46;;;;;;;12.02;4.93;;;;;;;;;;5052622;28;20029;-65
2022/07/02 14:14:13;;;;;;;7.03;5.07;;;;;;;;;;5052860;28;20048;-65
2022/07/02 14:16:41;;;;;;;7.82;4.30;;;;;;;;;;5053029;28;20441;-65
2022/07/02 14:19:09;;;;;;;8.75;5.97;;;;;;;;;;5053224;28;20040;-66
2022/07/02 14:21:36;;;;;;;6.90;4.53;;;;;;;;;;5053310;28;20442;-65
2022/07/02 14:24:04;;;;;;;7.22;4.55;;;;;;;;;;5052373;28;20817;-65
2022/07/02 14:26:31;;;;;;;6.22;5.05;;;;;;;;;;5051711;28;20546;-65
2022/07/02 14:28:59;;;;;;;6.15;4.65;;;;;;;;;;5049073;28;20048;-66
2022/07/02 14:31:26;;;;;;;5.57;4.75;;;;;;;;;;5051344;28;20063;-65
2022/07/02 14:33:54;;;;;;;8.23;6.25;;;;;;;;;;5066851;28;20032;-65
2022/07/02 14:36:21;;;;;;;5.22;4.68;;;;;;;;;;5052941;28;20040;-65
2022/07/02 14:38:49;;;;;;;8.10;5.18;;;;;;;;;;5052688;28;20037;-65
2022/07/02 14:41:32;;;;;;;4.90;4.40;;;;;;;;;;5052428;28;20053;-65
2022/07/02 14:44:00;;;;;;;6.38;4.40;;;;;;;;;;5052505;28;20049;-66
2022/07/02 14:46:30;;;;;;;6.15;4.35;;;;;;;;;;5061991;28;20044;-65
2022/07/02 14:48:59;;;;;;;5.82;4.32;;;;;;;;;;5056676;28;20095;-65